sensor_id;sensor_type;location;lat;lon;timestamp;pressure;altitude;pressure_sealevel;temperature;humidity
70133;BME280;57495;49.922;7.966;2024-03-22T00:00:52;100572.38;;;11.00;100.00
70133;BME280;57495;49.922;7.966;2024-03-22T00:02:54;100567.88;;;11.00;100.00
70133;BME280;57495;49.922;7.966;2024-03-22T00:04:54;100568.88;;;10.99;100.00
70133;BME280;57495;49.922;7.966;2024-03-22T00:06:56;100570.41;;;11.02;100.00
70133;BME280;57495;49.922;7.966;2024-03-22T00:08:56;100564.22;;;11.01;100.00
70133;BME280;57495;49.922;7.966;2024-03-22T00:10:57;100558.94;;;10.90;100.00
70133;BME280;57495;49.922;7.966;2024-03-22T00:12:58;100558.66;;;10.93;100.00
70133;BME280;57495;49.922;7.966;2024-03-22T00:14:58;100559.06;;;10.89;100.00
70133;BME280;57495;49.922;7.966;2024-03-22T00:17:01;100552.13;;;10.86;100.00
70133;BME280;57495;49.922;7.966;2024-03-22T00:19:02;100553.72;;;10.89;100.00
70133;BME280;57495;49.922;7.966;2024-03-22T00:21:03;100553.50;;;10.80;100.00
70133;BME280;57495;49.922;7.966;2024-03-22T00:23:04;100548.28;;;10.79;100.00
70133;BME280;57495;49.922;7.966;2024-03-22T00:25:06;100551.72;;;10.81;100.00
70133;BME280;57495;49.922;7.966;2024-03-22T00:27:06;100546.16;;;10.94;100.00
70133;BME280;57495;49.922;7.966;2024-03-22T00:29:08;100545.03;;;10.96;100.00
70133;BME280;57495;49.922;7.966;2024-03-22T00:31:08;100539.94;;;10.93;100.00
70133;BME280;57495;49.922;7.966;2024-03-22T00:33:11;100540.94;;;10.92;100.00
70133;BME280;57495;49.922;7.966;2024-03-22T00:35:12;100541.19;;;10.89;100.00
70133;BME280;57495;49.922;7.966;2024-03-22T00:37:13;100538.75;;;10.86;100.00
70133;BME280;57495;49.922;7.966;2024-03-22T00:39:13;100534.47;;;10.74;100.00
70133;BME280;57495;49.922;7.966;2024-03-22T00:41:15;100531.69;;;10.75;100.00
70133;BME280;57495;49.922;7.966;2024-03-22T00:43:15;100532.13;;;10.59;100.00
70133;BME280;57495;49.922;7.966;2024-03-22T00:45:17;100532.19;;;10.69;100.00
70133;BME280;57495;49.922;7.966;2024-03-22T00:47:17;100525.88;;;10.70;100.00
70133;BME280;57495;49.922;7.966;2024-03-22T00:49:20;100528.78;;;10.67;100.00
70133;BME280;57495;49.922;7.966;2024-03-22T00:51:20;100524.03;;;10.71;100.00
70133;BME280;57495;49.922;7.966;2024-03-22T00:53:22;100518.34;;;10.64;100.00
70133;BME280;57495;49.922;7.966;2024-03-22T00:55:23;100514.53;;;10.57;100.00
70133;BME280;57495;49.922;7.966;2024-03-22T00:57:24;100514.38;;;10.58;100.00
70133;BME280;57495;49.922;7.966;2024-03-22T00:59:25;100513.47;;;10.48;100.00
70133;BME280;57495;49.922;7.966;2024-03-22T01:01:26;100509.50;;;10.63;100.00
70133;BME280;57495;49.922;7.966;2024-03-22T01:03:28;100517.50;;;10.63;100.00
70133;BME280;57495;49.922;7.966;2024-03-22T01:05:31;100510.03;;;10.57;100.00
70133;BME280;57495;49.922;7.966;2024-03-22T01:07:31;100504.25;;;10.62;100.00
70133;BME280;57495;49.922;7.966;2024-03-22T01:09:32;100508.59;;;10.53;100.00
70133;BME280;57495;49.922;7.966;2024-03-22T01:11:33;100500.81;;;10.50;100.00
70133;BME280;57495;49.922;7.966;2024-03-22T01:13:34;100498.91;;;10.62;100.00
70133;BME280;57495;49.922;7.966;2024-03-22T01:15:35;100504.72;;;10.67;100.00
70133;BME280;57495;49.922;7.966;2024-03-22T01:17:36;100496.81;;;10.66;100.00
70133;BME280;57495;49.922;7.966;2024-03-22T01:19:37;100504.00;;;10.65;100.00
70133;BME280;57495;49.922;7.966;2024-03-22T01:21:40;100499.19;;;10.59;100.00
70133;BME280;57495;49.922;7.966;2024-03-22T01:23:40;100493.84;;;10.59;100.00
70133;BME280;57495;49.922;7.966;2024-03-22T01:25:42;100502.25;;;10.54;100.00
70133;BME280;57495;49.922;7.966;2024-03-22T01:27:42;100501.16;;;10.57;100.00
70133;BME280;57495;49.922;7.966;2024-03-22T01:29:44;100499.13;;;10.49;100.00
70133;BME280;57495;49.922;7.966;2024-03-22T01:31:44;100505.31;;;10.50;100.00
70133;BME280;57495;49.922;7.966;2024-03-22T01:33:45;100500.22;;;10.47;100.00
70133;BME280;57495;49.922;7.966;2024-03-22T01:35:46;100503.31;;;10.42;100.00
70133;BME280;57495;49.922;7.966;2024-03-22T01:37:49;100494.69;;;10.38;100.00
70133;BME280;57495;49.922;7.966;2024-03-22T01:39:49;100501.88;;;10.26;100.00
70133;BME280;57495;49.922;7.966;2024-03-22T01:41:51;100499.91;;;10.29;100.00
70133;BME280;57495;49.922;7.966;2024-03-22T01:43:51;100506.50;;;10.24;100.00
70133;BME280;57495;49.922;7.966;2024-03-22T01:45:52;100498.13;;;10.29;100.00
70133;BME280;57495;49.922;7.966;2024-03-22T01:47:54;100497.81;;;10.11;100.00
70133;BME280;57495;49.922;7.966;2024-03-22T01:49:55;100491.13;;;10.17;100.00
70133;BME280;57495;49.922;7.966;2024-03-22T01:51:56;100483.81;;;10.19;100.00
70133;BME280;57495;49.922;7.966;2024-03-22T01:54:01;100486.66;;;10.06;100.00
70133;BME280;57495;49.922;7.966;2024-03-22T01:56:02;100484.94;;;10.16;100.00
70133;BME280;57495;49.922;7.966;2024-03-22T01:58:04;100482.25;;;10.16;100.00
70133;BME280;57495;49.922;7.966;2024-03-22T02:00:05;100480.50;;;10.26;100.00
70133;BME280;57495;49.922;7.966;2024-03-22T02:02:08;100477.56;;;10.30;100.00
70133;BME280;57495;49.922;7.966;2024-03-22T02:04:09;100467.00;;;10.28;100.00
70133;BME280;57495;49.922;7.966;2024-03-22T02:06:11;100466.22;;;10.16;100.00
70133;BME280;57495;49.922;7.966;2024-03-22T02:08:11;100466.34;;;10.15;100.00
70133;BME280;57495;49.922;7.966;2024-03-22T02:10:14;100463.56;;;10.16;100.00
70133;BME280;57495;49.922;7.966;2024-03-22T02:12:15;100458.97;;;10.07;100.00
70133;BME280;57495;49.922;7.966;2024-03-22T02:14:17;100458.56;;;10.12;100.00
70133;BME280;57495;49.922;7.966;2024-03-22T02:16:17;100458.69;;;10.10;100.00
70133;BME280;57495;49.922;7.966;2024-03-22T02:18:19;100453.81;;;9.94;100.00
70133;BME280;57495;49.922;7.966;2024-03-22T02:20:19;100453.72;;;9.84;100.00
70133;BME280;57495;49.922;7.966;2024-03-22T02:22:21;100451.97;;;9.95;100.00
70133;BME280;57495;49.922;7.966;2024-03-22T02:24:22;100455.63;;;9.94;100.00
70133;BME280;57495;49.922;7.966;2024-03-22T02:26:24;100455.94;;;9.79;100.00
70133;BME280;57495;49.922;7.966;2024-03-22T02:28:24;100459.06;;;9.84;100.00
70133;BME280;57495;49.922;7.966;2024-03-22T02:30:26;100446.22;;;9.78;100.00
70133;BME280;57495;49.922;7.966;2024-03-22T02:32:26;100450.13;;;9.74;100.00
70133;BME280;57495;49.922;7.966;2024-03-22T02:34:27;100450.72;;;9.78;100.00
70133;BME280;57495;49.922;7.966;2024-03-22T02:36:28;100444.03;;;9.83;100.00
70133;BME280;57495;49.922;7.966;2024-03-22T02:38:28;100445.69;;;9.96;100.00
70133;BME280;57495;49.922;7.966;2024-03-22T02:40:31;100438.56;;;10.06;100.00
70133;BME280;57495;49.922;7.966;2024-03-22T02:42:31;100437.13;;;10.02;100.00
70133;BME280;57495;49.922;7.966;2024-03-22T02:44:33;100434.22;;;10.05;100.00
70133;BME280;57495;49.922;7.966;2024-03-22T02:46:33;100430.78;;;10.03;100.00
70133;BME280;57495;49.922;7.966;2024-03-22T02:48:35;100432.50;;;10.04;100.00
70133;BME280;57495;49.922;7.966;2024-03-22T02:50:36;100428.13;;;10.03;100.00
70133;BME280;57495;49.922;7.966;2024-03-22T02:52:37;100436.19;;;9.92;100.00
70133;BME280;57495;49.922;7.966;2024-03-22T02:54:38;100429.78;;;9.94;100.00
70133;BME280;57495;49.922;7.966;2024-03-22T02:56:39;100423.91;;;10.00;100.00
70133;BME280;57495;49.922;7.966;2024-03-22T02:58:41;100427.34;;;9.91;100.00
70133;BME280;57495;49.922;7.966;2024-03-22T03:00:41;100432.22;;;9.86;100.00
70133;BME280;57495;49.922;7.966;2024-03-22T03:02:43;100428.19;;;9.92;100.00
70133;BME280;57495;49.922;7.966;2024-03-22T03:04:43;100421.81;;;9.83;100.00
70133;BME280;57495;49.922;7.966;2024-03-22T03:06:45;100412.56;;;9.87;100.00
70133;BME280;57495;49.922;7.966;2024-03-22T03:08:46;100418.03;;;9.85;100.00
70133;BME280;57495;49.922;7.966;2024-03-22T03:10:47;100408.41;;;9.94;100.00
70133;BME280;57495;49.922;7.966;2024-03-22T03:12:49;100409.59;;;9.90;100.00
70133;BME280;57495;49.922;7.966;2024-03-22T03:14:50;100410.59;;;9.89;100.00
70133;BME280;57495;49.922;7.966;2024-03-22T03:16:50;100405.63;;;9.84;100.00
70133;BME280;57495;49.922;7.966;2024-03-22T03:18:52;100405.38;;;9.87;100.00
70133;BME280;57495;49.922;7.966;2024-03-22T03:20:52;100401.28;;;9.83;100.00
70133;BME280;57495;49.922;7.966;2024-03-22T03:22:54;100400.69;;;9.80;100.00
70133;BME280;57495;49.922;7.966;2024-03-22T03:24:55;100403.81;;;9.85;100.00
70133;BME280;57495;49.922;7.966;2024-03-22T03:26:57;100400.56;;;9.81;100.00
70133;BME280;57495;49.922;7.966;2024-03-22T03:28:58;100407.09;;;9.89;100.00
70133;BME280;57495;49.922;7.966;2024-03-22T03:31:00;100395.63;;;9.98;100.00
70133;BME280;57495;49.922;7.966;2024-03-22T03:33:00;100390.19;;;9.88;100.00
70133;BME280;57495;49.922;7.966;2024-03-22T03:35:01;100382.47;;;9.85;100.00
70133;BME280;57495;49.922;7.966;2024-03-22T03:37:02;100379.38;;;9.90;100.00
70133;BME280;57495;49.922;7.966;2024-03-22T03:39:03;100385.72;;;9.89;100.00
70133;BME280;57495;49.922;7.966;2024-03-22T03:41:04;100380.56;;;9.97;100.00
70133;BME280;57495;49.922;7.966;2024-03-22T03:43:05;100383.63;;;9.92;100.00
70133;BME280;57495;49.922;7.966;2024-03-22T03:45:08;100390.88;;;10.01;100.00
70133;BME280;57495;49.922;7.966;2024-03-22T03:47:09;100380.03;;;10.03;100.00
70133;BME280;57495;49.922;7.966;2024-03-22T03:49:10;100388.22;;;10.01;100.00
70133;BME280;57495;49.922;7.966;2024-03-22T03:51:10;100384.78;;;9.99;100.00
70133;BME280;57495;49.922;7.966;2024-03-22T03:53:12;100374.44;;;10.06;100.00
70133;BME280;57495;49.922;7.966;2024-03-22T03:55:12;100371.53;;;10.09;100.00
70133;BME280;57495;49.922;7.966;2024-03-22T03:57:13;100365.47;;;10.07;100.00
70133;BME280;57495;49.922;7.966;2024-03-22T03:59:14;100365.19;;;10.10;100.00
70133;BME280;57495;49.922;7.966;2024-03-22T04:01:16;100360.69;;;10.11;100.00
70133;BME280;57495;49.922;7.966;2024-03-22T04:03:18;100365.19;;;10.10;100.00
70133;BME280;57495;49.922;7.966;2024-03-22T04:05:19;100359.59;;;10.13;100.00
70133;BME280;57495;49.922;7.966;2024-03-22T04:07:21;100354.78;;;10.07;100.00
70133;BME280;57495;49.922;7.966;2024-03-22T04:09:21;100348.06;;;10.13;100.00
70133;BME280;57495;49.922;7.966;2024-03-22T04:11:23;100346.94;;;10.15;100.00
70133;BME280;57495;49.922;7.966;2024-03-22T04:13:24;100350.19;;;10.19;100.00
70133;BME280;57495;49.922;7.966;2024-03-22T04:15:25;100349.81;;;10.23;100.00
70133;BME280;57495;49.922;7.966;2024-03-22T04:17:27;100344.19;;;10.26;100.00
70133;BME280;57495;49.922;7.966;2024-03-22T04:19:28;100346.69;;;10.18;100.00
70133;BME280;57495;49.922;7.966;2024-03-22T04:21:29;100341.22;;;10.20;100.00
70133;BME280;57495;49.922;7.966;2024-03-22T04:23:30;100345.16;;;10.25;100.00
70133;BME280;57495;49.922;7.966;2024-03-22T04:25:31;100341.84;;;10.12;100.00
70133;BME280;57495;49.922;7.966;2024-03-22T04:27:35;100334.28;;;10.17;100.00
70133;BME280;57495;49.922;7.966;2024-03-22T04:29:36;100342.13;;;10.09;100.00
70133;BME280;57495;49.922;7.966;2024-03-22T04:31:37;100350.59;;;10.14;100.00
70133;BME280;57495;49.922;7.966;2024-03-22T04:33:39;100346.09;;;10.15;100.00
70133;BME280;57495;49.922;7.966;2024-03-22T04:35:45;100338.75;;;10.07;100.00
70133;BME280;57495;49.922;7.966;2024-03-22T04:37:45;100341.78;;;10.02;100.00
70133;BME280;57495;49.922;7.966;2024-03-22T04:39:46;100334.78;;;10.01;100.00
70133;BME280;57495;49.922;7.966;2024-03-22T04:41:47;100344.38;;;10.14;100.00
70133;BME280;57495;49.922;7.966;2024-03-22T04:43:48;100343.53;;;10.13;100.00
70133;BME280;57495;49.922;7.966;2024-03-22T04:45:49;100347.47;;;10.09;100.00
70133;BME280;57495;49.922;7.966;2024-03-22T04:47:51;100346.66;;;9.97;100.00
70133;BME280;57495;49.922;7.966;2024-03-22T04:49:53;100342.69;;;9.92;100.00
70133;BME280;57495;49.922;7.966;2024-03-22T04:51:55;100348.44;;;9.87;100.00
70133;BME280;57495;49.922;7.966;2024-03-22T04:53:55;100345.97;;;9.95;100.00
70133;BME280;57495;49.922;7.966;2024-03-22T04:55:57;100351.63;;;10.02;100.00
70133;BME280;57495;49.922;7.966;2024-03-22T04:57:57;100346.81;;;9.96;100.00
70133;BME280;57495;49.922;7.966;2024-03-22T04:59:58;100342.44;;;9.95;100.00
70133;BME280;57495;49.922;7.966;2024-03-22T05:01:59;100344.59;;;10.01;100.00
70133;BME280;57495;49.922;7.966;2024-03-22T05:04:00;100344.59;;;10.01;100.00
70133;BME280;57495;49.922;7.966;2024-03-22T05:06:02;100345.31;;;10.03;100.00
70133;BME280;57495;49.922;7.966;2024-03-22T05:08:04;100340.41;;;10.08;100.00
70133;BME280;57495;49.922;7.966;2024-03-22T05:10:05;100345.03;;;10.06;100.00
70133;BME280;57495;49.922;7.966;2024-03-22T05:12:09;100341.25;;;10.09;100.00
70133;BME280;57495;49.922;7.966;2024-03-22T05:14:09;100344.34;;;10.04;100.00
70133;BME280;57495;49.922;7.966;2024-03-22T05:16:10;100354.31;;;10.02;100.00
70133;BME280;57495;49.922;7.966;2024-03-22T05:18:11;100342.03;;;9.99;100.00
70133;BME280;57495;49.922;7.966;2024-03-22T05:20:13;100342.00;;;9.90;100.00
70133;BME280;57495;49.922;7.966;2024-03-22T05:22:15;100331.88;;;9.93;100.00
70133;BME280;57495;49.922;7.966;2024-03-22T05:24:17;100336.97;;;9.96;100.00
70133;BME280;57495;49.922;7.966;2024-03-22T05:26:17;100338.16;;;10.03;100.00
70133;BME280;57495;49.922;7.966;2024-03-22T05:28:21;100336.50;;;10.12;100.00
70133;BME280;57495;49.922;7.966;2024-03-22T05:30:21;100342.28;;;10.17;100.00
70133;BME280;57495;49.922;7.966;2024-03-22T05:32:22;100337.66;;;10.19;100.00
70133;BME280;57495;49.922;7.966;2024-03-22T05:34:23;100334.59;;;10.24;100.00
70133;BME280;57495;49.922;7.966;2024-03-22T05:36:24;100329.66;;;10.19;100.00
70133;BME280;57495;49.922;7.966;2024-03-22T05:38:26;100327.31;;;10.26;100.00
70133;BME280;57495;49.922;7.966;2024-03-22T05:40:27;100326.19;;;10.29;100.00
70133;BME280;57495;49.922;7.966;2024-03-22T05:42:28;100327.03;;;10.29;100.00
70133;BME280;57495;49.922;7.966;2024-03-22T05:44:29;100327.88;;;10.30;100.00
70133;BME280;57495;49.922;7.966;2024-03-22T05:46:30;100329.38;;;10.22;100.00
70133;BME280;57495;49.922;7.966;2024-03-22T05:48:31;100328.44;;;10.23;100.00
70133;BME280;57495;49.922;7.966;2024-03-22T05:50:32;100324.16;;;10.21;100.00
70133;BME280;57495;49.922;7.966;2024-03-22T05:52:33;100325.75;;;10.23;100.00
70133;BME280;57495;49.922;7.966;2024-03-22T05:54:35;100329.25;;;10.24;100.00
70133;BME280;57495;49.922;7.966;2024-03-22T05:56:37;100333.00;;;10.33;100.00
70133;BME280;57495;49.922;7.966;2024-03-22T05:58:37;100322.03;;;10.36;100.00
70133;BME280;57495;49.922;7.966;2024-03-22T06:00:39;100330.50;;;10.41;100.00
70133;BME280;57495;49.922;7.966;2024-03-22T06:02:39;100315.25;;;10.32;100.00
70133;BME280;57495;49.922;7.966;2024-03-22T06:04:41;100316.47;;;10.28;100.00
70133;BME280;57495;49.922;7.966;2024-03-22T06:06:41;100320.06;;;10.38;100.00
70133;BME280;57495;49.922;7.966;2024-03-22T06:08:43;100316.09;;;10.32;100.00
70133;BME280;57495;49.922;7.966;2024-03-22T06:10:46;100317.72;;;10.44;100.00
70133;BME280;57495;49.922;7.966;2024-03-22T06:12:47;100311.34;;;10.36;100.00
70133;BME280;57495;49.922;7.966;2024-03-22T06:14:48;100312.75;;;10.40;100.00
70133;BME280;57495;49.922;7.966;2024-03-22T06:16:50;100314.91;;;10.46;100.00
70133;BME280;57495;49.922;7.966;2024-03-22T06:18:52;100312.38;;;10.54;100.00
70133;BME280;57495;49.922;7.966;2024-03-22T06:20:52;100311.09;;;10.49;100.00
70133;BME280;57495;49.922;7.966;2024-03-22T06:22:55;100308.31;;;10.50;100.00
70133;BME280;57495;49.922;7.966;2024-03-22T06:24:55;100303.50;;;10.44;100.00
70133;BME280;57495;49.922;7.966;2024-03-22T06:26:58;100302.69;;;10.53;100.00
70133;BME280;57495;49.922;7.966;2024-03-22T06:28:58;100305.94;;;10.57;100.00
70133;BME280;57495;49.922;7.966;2024-03-22T06:31:00;100304.94;;;10.58;100.00
70133;BME280;57495;49.922;7.966;2024-03-22T06:33:00;100304.09;;;10.57;100.00
70133;BME280;57495;49.922;7.966;2024-03-22T06:35:02;100302.13;;;10.59;100.00
70133;BME280;57495;49.922;7.966;2024-03-22T06:37:05;100299.47;;;10.59;100.00
70133;BME280;57495;49.922;7.966;2024-03-22T06:39:07;100300.88;;;10.63;100.00
70133;BME280;57495;49.922;7.966;2024-03-22T06:41:08;100299.63;;;10.68;100.00
70133;BME280;57495;49.922;7.966;2024-03-22T06:43:11;100302.25;;;10.48;100.00
70133;BME280;57495;49.922;7.966;2024-03-22T06:45:11;100305.47;;;10.42;100.00
70133;BME280;57495;49.922;7.966;2024-03-22T06:47:12;100301.53;;;10.46;100.00
70133;BME280;57495;49.922;7.966;2024-03-22T06:49:13;100298.31;;;10.52;100.00
70133;BME280;57495;49.922;7.966;2024-03-22T06:51:14;100300.38;;;10.39;100.00
70133;BME280;57495;49.922;7.966;2024-03-22T06:53:15;100296.44;;;10.43;100.00
70133;BME280;57495;49.922;7.966;2024-03-22T06:55:16;100286.09;;;10.29;100.00
70133;BME280;57495;49.922;7.966;2024-03-22T06:57:17;100291.13;;;10.22;100.00
70133;BME280;57495;49.922;7.966;2024-03-22T06:59:19;100288.75;;;10.29;100.00
70133;BME280;57495;49.922;7.966;2024-03-22T07:01:20;100294.19;;;10.38;100.00
70133;BME280;57495;49.922;7.966;2024-03-22T07:03:21;100286.31;;;10.37;100.00
70133;BME280;57495;49.922;7.966;2024-03-22T07:05:22;100276.06;;;10.42;100.00
70133;BME280;57495;49.922;7.966;2024-03-22T07:07:23;100274.31;;;10.31;100.00
70133;BME280;57495;49.922;7.966;2024-03-22T07:09:24;100274.19;;;10.33;100.00
70133;BME280;57495;49.922;7.966;2024-03-22T07:11:28;100276.19;;;10.40;100.00
70133;BME280;57495;49.922;7.966;2024-03-22T07:13:28;100280.66;;;10.40;100.00
70133;BME280;57495;49.922;7.966;2024-03-22T07:15:31;100278.44;;;10.45;100.00
70133;BME280;57495;49.922;7.966;2024-03-22T07:17:32;100275.88;;;10.34;100.00
70133;BME280;57495;49.922;7.966;2024-03-22T07:19:34;100275.06;;;10.43;100.00
70133;BME280;57495;49.922;7.966;2024-03-22T07:21:35;100276.31;;;10.39;100.00
70133;BME280;57495;49.922;7.966;2024-03-22T07:23:36;100276.47;;;10.47;100.00
70133;BME280;57495;49.922;7.966;2024-03-22T07:25:37;100275.31;;;10.40;100.00
70133;BME280;57495;49.922;7.966;2024-03-22T07:27:38;100278.75;;;10.52;100.00
70133;BME280;57495;49.922;7.966;2024-03-22T07:29:38;100276.22;;;10.50;100.00
70133;BME280;57495;49.922;7.966;2024-03-22T07:31:41;100272.97;;;10.47;100.00
70133;BME280;57495;49.922;7.966;2024-03-22T07:33:42;100262.41;;;10.45;100.00
70133;BME280;57495;49.922;7.966;2024-03-22T07:35:43;100261.13;;;10.49;100.00
70133;BME280;57495;49.922;7.966;2024-03-22T07:37:44;100255.38;;;10.44;100.00
70133;BME280;57495;49.922;7.966;2024-03-22T07:39:45;100248.63;;;10.50;100.00
70133;BME280;57495;49.922;7.966;2024-03-22T07:41:46;100250.63;;;10.57;100.00
70133;BME280;57495;49.922;7.966;2024-03-22T07:43:47;100251.88;;;10.53;100.00
70133;BME280;57495;49.922;7.966;2024-03-22T07:45:48;100243.31;;;10.59;100.00
70133;BME280;57495;49.922;7.966;2024-03-22T07:47:49;100242.47;;;10.59;100.00
70133;BME280;57495;49.922;7.966;2024-03-22T07:49:51;100237.81;;;10.61;100.00
70133;BME280;57495;49.922;7.966;2024-03-22T07:51:51;100238.81;;;10.70;100.00
70133;BME280;57495;49.922;7.966;2024-03-22T07:53:53;100242.75;;;10.66;100.00
70133;BME280;57495;49.922;7.966;2024-03-22T07:55:54;100231.22;;;10.65;100.00
70133;BME280;57495;49.922;7.966;2024-03-22T07:57:55;100237.84;;;10.71;100.00
70133;BME280;57495;49.922;7.966;2024-03-22T07:59:57;100242.22;;;10.72;100.00
70133;BME280;57495;49.922;7.966;2024-03-22T08:01:59;100233.75;;;10.76;100.00
70133;BME280;57495;49.922;7.966;2024-03-22T08:04:00;100237.56;;;10.74;100.00
70133;BME280;57495;49.922;7.966;2024-03-22T08:06:02;100239.53;;;10.81;100.00
70133;BME280;57495;49.922;7.966;2024-03-22T08:08:03;100242.22;;;10.81;100.00
70133;BME280;57495;49.922;7.966;2024-03-22T08:10:05;100233.22;;;10.92;100.00
70133;BME280;57495;49.922;7.966;2024-03-22T08:12:06;100238.72;;;10.91;100.00
70133;BME280;57495;49.922;7.966;2024-03-22T08:14:08;100239.53;;;10.91;100.00
70133;BME280;57495;49.922;7.966;2024-03-22T08:16:08;100230.53;;;11.02;100.00
70133;BME280;57495;49.922;7.966;2024-03-22T08:18:10;100230.41;;;11.03;100.00
70133;BME280;57495;49.922;7.966;2024-03-22T08:20:11;100223.34;;;11.02;100.00
70133;BME280;57495;49.922;7.966;2024-03-22T08:22:13;100222.22;;;11.15;100.00
70133;BME280;57495;49.922;7.966;2024-03-22T08:24:14;100218.28;;;11.19;100.00
70133;BME280;57495;49.922;7.966;2024-03-22T08:26:15;100217.31;;;11.20;100.00
70133;BME280;57495;49.922;7.966;2024-03-22T08:28:16;100214.06;;;11.26;100.00
70133;BME280;57495;49.922;7.966;2024-03-22T08:30:17;100209.25;;;11.39;100.00
70133;BME280;57495;49.922;7.966;2024-03-22T08:32:18;100211.06;;;11.49;100.00
70133;BME280;57495;49.922;7.966;2024-03-22T08:34:18;100210.94;;;11.40;100.00
70133;BME280;57495;49.922;7.966;2024-03-22T08:36:21;100217.69;;;11.45;100.00
70133;BME280;57495;49.922;7.966;2024-03-22T08:38:22;100214.59;;;11.39;100.00
70133;BME280;57495;49.922;7.966;2024-03-22T08:40:24;100207.25;;;11.41;100.00
70133;BME280;57495;49.922;7.966;2024-03-22T08:42:25;100204.97;;;11.56;100.00
70133;BME280;57495;49.922;7.966;2024-03-22T08:44:25;100203.00;;;11.68;100.00
70133;BME280;57495;49.922;7.966;2024-03-22T08:46:27;100200.00;;;11.81;100.00
70133;BME280;57495;49.922;7.966;2024-03-22T08:48:29;100200.13;;;11.79;100.00
70133;BME280;57495;49.922;7.966;2024-03-22T08:50:31;100189.66;;;11.96;100.00
70133;BME280;57495;49.922;7.966;2024-03-22T08:52:33;100191.75;;;12.02;100.00
70133;BME280;57495;49.922;7.966;2024-03-22T08:54:35;100188.19;;;12.11;100.00
70133;BME280;57495;49.922;7.966;2024-03-22T08:56:36;100190.44;;;12.06;100.00
70133;BME280;57495;49.922;7.966;2024-03-22T08:58:37;100181.13;;;12.10;100.00
70133;BME280;57495;49.922;7.966;2024-03-22T09:00:41;100177.59;;;12.37;100.00
70133;BME280;57495;49.922;7.966;2024-03-22T09:02:43;100183.34;;;12.43;100.00
70133;BME280;57495;49.922;7.966;2024-03-22T09:04:43;100175.44;;;12.41;100.00
70133;BME280;57495;49.922;7.966;2024-03-22T09:06:44;100175.94;;;12.72;100.00
70133;BME280;57495;49.922;7.966;2024-03-22T09:08:46;100176.34;;;12.77;100.00
70133;BME280;57495;49.922;7.966;2024-03-22T09:10:48;100174.47;;;12.78;100.00
70133;BME280;57495;49.922;7.966;2024-03-22T09:12:48;100176.56;;;13.28;100.00
70133;BME280;57495;49.922;7.966;2024-03-22T09:14:49;100173.63;;;13.31;100.00
70133;BME280;57495;49.922;7.966;2024-03-22T09:16:50;100167.41;;;13.31;100.00
70133;BME280;57495;49.922;7.966;2024-03-22T09:18:51;100169.84;;;13.24;100.00
70133;BME280;57495;49.922;7.966;2024-03-22T09:20:52;100165.16;;;13.26;100.00
70133;BME280;57495;49.922;7.966;2024-03-22T09:22:53;100162.72;;;13.33;100.00
70133;BME280;57495;49.922;7.966;2024-03-22T09:24:56;100163.19;;;13.54;100.00
70133;BME280;57495;49.922;7.966;2024-03-22T09:26:56;100163.97;;;13.47;100.00
70133;BME280;57495;49.922;7.966;2024-03-22T09:28:58;100163.41;;;13.35;100.00
70133;BME280;57495;49.922;7.966;2024-03-22T09:31:03;100163.16;;;13.28;100.00
70133;BME280;57495;49.922;7.966;2024-03-22T09:33:04;100154.44;;;13.08;100.00
70133;BME280;57495;49.922;7.966;2024-03-22T09:35:06;100158.66;;;13.11;100.00
70133;BME280;57495;49.922;7.966;2024-03-22T09:37:07;100151.00;;;13.16;100.00
70133;BME280;57495;49.922;7.966;2024-03-22T09:39:08;100149.81;;;13.19;100.00
70133;BME280;57495;49.922;7.966;2024-03-22T09:41:13;100155.50;;;13.15;100.00
70133;BME280;57495;49.922;7.966;2024-03-22T09:43:15;100147.63;;;13.14;100.00
70133;BME280;57495;49.922;7.966;2024-03-22T09:45:20;100143.69;;;13.08;100.00
70133;BME280;57495;49.922;7.966;2024-03-22T09:47:21;100148.59;;;13.13;100.00
70133;BME280;57495;49.922;7.966;2024-03-22T09:49:23;100146.75;;;13.13;100.00
70133;BME280;57495;49.922;7.966;2024-03-22T09:51:24;100139.25;;;13.17;100.00
70133;BME280;57495;49.922;7.966;2024-03-22T09:53:27;100137.63;;;13.24;100.00
70133;BME280;57495;49.922;7.966;2024-03-22T09:55:28;100132.16;;;13.34;100.00
70133;BME280;57495;49.922;7.966;2024-03-22T09:57:34;100132.72;;;13.20;100.00
70133;BME280;57495;49.922;7.966;2024-03-22T09:59:35;100129.50;;;13.16;100.00
70133;BME280;57495;49.922;7.966;2024-03-22T10:01:39;100132.00;;;13.18;100.00
70133;BME280;57495;49.922;7.966;2024-03-22T10:03:40;100135.19;;;13.13;100.00
70133;BME280;57495;49.922;7.966;2024-03-22T10:05:41;100122.44;;;13.15;100.00
70133;BME280;57495;49.922;7.966;2024-03-22T10:07:42;100130.88;;;13.20;100.00
70133;BME280;57495;49.922;7.966;2024-03-22T10:09:44;100117.81;;;13.25;100.00
70133;BME280;57495;49.922;7.966;2024-03-22T10:11:44;100128.22;;;13.28;100.00
70133;BME280;57495;49.922;7.966;2024-03-22T10:13:47;100114.03;;;13.36;100.00
70133;BME280;57495;49.922;7.966;2024-03-22T10:15:51;100111.66;;;13.59;100.00
70133;BME280;57495;49.922;7.966;2024-03-22T10:17:54;100109.69;;;13.69;100.00
70133;BME280;57495;49.922;7.966;2024-03-22T10:19:56;100101.38;;;13.81;100.00
70133;BME280;57495;49.922;7.966;2024-03-22T10:22:00;100102.44;;;14.04;100.00
70133;BME280;57495;49.922;7.966;2024-03-22T10:24:02;100102.72;;;14.52;100.00
70133;BME280;57495;49.922;7.966;2024-03-22T10:26:02;100091.47;;;14.73;100.00